KACV Airport (California Redwood Coast-Humboldt County) Information

FAA: ACV - ICAO: KACV

KACV Airport Location

State California
County Humboldt
City Arcata/Eureka
KACV Airport is 7 miles north of Arcata/Eureka, CA.
Latitude 40-58-40.2000N
Longitude 124-06-30.5000W
Elevation 222ft

KACV Airport METARs

METAR KACV 180553Z AUTO 13003KT 7SM BKN018 OVC050 09/09 A2988 RMK AO2 RAB20E46 SLP124 P0001 60012 T00940089 10100 20094 51015
Altimeter 29.88"
Temperature 9.4°C (48.9°F)
Wind 130° at 3KT
Clouds broken at 1,800ft overcast at 5,000ft
Visibility 7.0mi
Time observed: 2021-10-18T05:53:00Z

KACV Airport Details

Status Operational
Activation March 1943
Ownership Public
Usage Public
Chart KLAMATH FALLS
ATC on-site No
Beacon schedule sunset-sunrise
Beacon color clear green

KACV Airport Contacts

Owner HUMBOLDT COUNTY
Owner address 1106 SECOND ST, EUREKA, CA 95501
Owner phone (707) 496-0102
Manager LUKE MECHAM
Manager address 18300 HWY 18, APPLE VALLEY, CA 92307
Manager phone 760-946-8139

KACV Airport (California Redwood Coast-Humboldt County) Radio Frequencies

KACV (Airport) Radio Frequencies

UNICOM 123
Common traffic advisory frequency (CTAF) 123